createdAt,value
2019-03-16T00:00:02.381Z,61.85
2019-03-16T00:01:02.423Z,61.65
2019-03-16T00:02:02.350Z,62.26
2019-03-16T00:03:02.342Z,61.85
2019-03-16T00:04:02.330Z,62.65
2019-03-16T00:05:02.394Z,62.68
2019-03-16T00:06:02.322Z,62.37
2019-03-16T00:07:02.339Z,62.78
2019-03-16T00:08:02.285Z,62.47
2019-03-16T00:09:02.294Z,62.99
2019-03-16T00:10:02.287Z,62.99
2019-03-16T00:11:02.259Z,63.60
2019-03-16T00:12:02.394Z,63.22
2019-03-16T00:13:02.237Z,63.29
2019-03-16T00:14:02.223Z,63.12
2019-03-16T00:15:02.225Z,63.19
2019-03-16T00:16:02.192Z,63.19
2019-03-16T00:17:02.174Z,63.19
2019-03-16T00:18:02.167Z,63.22
2019-03-16T00:19:02.293Z,63.19
2019-03-16T00:20:02.164Z,63.64
2019-03-16T00:21:02.152Z,63.32
2019-03-16T00:22:02.136Z,63.32
2019-03-16T00:23:02.135Z,63.64
2019-03-16T00:24:02.212Z,63.12
2019-03-16T00:25:02.107Z,63.74
2019-03-16T00:26:02.101Z,63.22
2019-03-16T00:27:02.069Z,63.53
2019-03-16T00:28:02.058Z,63.84
2019-03-16T00:29:02.044Z,63.74
2019-03-16T00:30:02.077Z,63.22
2019-03-16T00:31:02.012Z,63.12
2019-03-16T00:32:12.810Z,62.92
2019-03-16T00:33:02.992Z,63.32
2019-03-16T00:34:01.993Z,63.01
2019-03-16T00:35:02.009Z,64.25
2019-03-16T00:36:01.964Z,63.22
2019-03-16T00:37:01.956Z,63.74
2019-03-16T00:38:01.958Z,63.74
2019-03-16T00:39:01.928Z,63.64
2019-03-16T00:40:01.941Z,64.15
2019-03-16T00:41:01.900Z,64.46
2019-03-16T00:42:01.890Z,64.15
2019-03-16T00:43:01.881Z,63.97
2019-03-16T00:44:01.865Z,64.15
2019-03-16T00:45:01.873Z,64.25
2019-03-16T00:46:01.845Z,64.46
2019-03-16T00:47:01.839Z,64.36
2019-03-16T00:48:01.847Z,64.04
2019-03-16T00:49:01.814Z,64.25
2019-03-16T00:50:01.839Z,64.56
2019-03-16T00:51:01.794Z,64.90
2019-03-16T00:52:01.781Z,64.80
2019-03-16T00:53:01.767Z,64.39
2019-03-16T00:54:01.761Z,64.25
2019-03-16T00:55:01.761Z,64.15
2019-03-16T00:56:01.776Z,64.56
2019-03-16T00:57:01.726Z,64.59
2019-03-16T00:58:01.707Z,64.49
2019-03-16T00:59:01.699Z,64.59
2019-03-16T01:00:01.695Z,64.77
2019-03-16T01:01:01.706Z,64.77
2019-03-16T01:02:01.674Z,64.70
2019-03-16T01:03:01.656Z,64.80
2019-03-16T01:04:01.654Z,64.90
2019-03-16T01:05:01.638Z,65.21
2019-03-16T01:06:01.638Z,65.52
2019-03-16T01:07:01.614Z,65.21
2019-03-16T01:08:01.603Z,65.62
2019-03-16T01:09:01.625Z,65.42
2019-03-16T01:10:01.579Z,66.04
2019-03-16T01:11:01.598Z,66.14
2019-03-16T01:12:01.558Z,66.04
2019-03-16T01:13:01.551Z,66.14
2019-03-16T01:14:01.541Z,66.14
2019-03-16T01:15:01.519Z,65.83
2019-03-16T01:16:01.540Z,65.94
2019-03-16T01:17:01.502Z,66.35
2019-03-16T01:18:01.490Z,66.14
2019-03-16T01:19:01.482Z,66.24
2019-03-16T01:20:01.480Z,66.86
2019-03-16T01:21:01.463Z,66.66
2019-03-16T01:22:01.443Z,66.76
2019-03-16T01:23:01.440Z,66.97
2019-03-16T01:24:01.418Z,67.17
2019-03-16T01:25:01.413Z,66.97
2019-03-16T01:26:01.413Z,67.17
2019-03-16T01:27:01.386Z,67.07
2019-03-16T01:28:01.383Z,66.97
2019-03-16T01:29:01.379Z,67.07
2019-03-16T01:30:01.363Z,66.97
2019-03-16T01:31:01.438Z,66.86
2019-03-16T01:32:01.330Z,68.21
2019-03-16T01:33:01.319Z,67.90
2019-03-16T01:34:01.315Z,68.00
2019-03-16T01:35:01.316Z,68.03
2019-03-16T01:36:01.303Z,67.90
2019-03-16T01:37:01.275Z,67.79
2019-03-16T01:38:01.274Z,68.21
2019-03-16T01:39:01.253Z,68.30
2019-03-16T01:40:01.251Z,68.62
2019-03-16T01:41:01.293Z,68.62
2019-03-16T01:42:01.220Z,68.30
2019-03-16T01:43:01.215Z,68.54
2019-03-16T01:44:01.204Z,68.54
2019-03-16T01:45:01.196Z,68.13
2019-03-16T01:46:01.192Z,68.10
2019-03-16T01:47:01.172Z,68.10
2019-03-16T01:48:01.153Z,68.41
2019-03-16T01:49:01.138Z,68.62
2019-03-16T01:50:01.132Z,68.62
2019-03-16T01:51:01.166Z,68.44
2019-03-16T01:52:01.105Z,68.54
2019-03-16T01:53:01.109Z,68.41
2019-03-16T01:54:01.086Z,68.30
2019-03-16T01:55:01.135Z,68.51
2019-03-16T01:56:01.087Z,68.34
2019-03-16T01:57:01.056Z,68.62
2019-03-16T01:58:01.034Z,68.82
2019-03-16T01:59:01.030Z,68.82
2019-03-16T02:00:01.018Z,68.82
2019-03-16T02:01:01.022Z,68.72
2019-03-16T02:02:00.996Z,69.13
2019-03-16T02:03:00.987Z,69.06
2019-03-16T02:04:00.981Z,68.62
2019-03-16T02:05:00.980Z,69.03
2019-03-16T02:06:00.987Z,68.82
2019-03-16T02:07:00.936Z,68.82
2019-03-16T02:08:00.934Z,69.03
2019-03-16T02:09:00.914Z,69.17
2019-03-16T02:10:00.910Z,69.34
2019-03-16T02:11:00.926Z,69.24
2019-03-16T02:12:00.882Z,69.03
2019-03-16T02:13:00.870Z,69.44
2019-03-16T02:14:00.869Z,69.13
2019-03-16T02:15:00.846Z,69.24
2019-03-16T02:16:10.839Z,69.13
2019-03-16T02:17:01.873Z,69.48
2019-03-16T02:18:00.830Z,69.13
2019-03-16T02:19:00.824Z,69.24
2019-03-16T02:20:00.805Z,69.48
2019-03-16T02:21:00.782Z,69.17
2019-03-16T02:22:00.816Z,68.93
2019-03-16T02:23:00.764Z,69.24
2019-03-16T02:24:00.754Z,68.82
2019-03-16T02:25:00.741Z,68.93
2019-03-16T02:26:00.751Z,69.24
2019-03-16T02:27:00.714Z,69.24
2019-03-16T02:28:00.699Z,69.17
2019-03-16T02:29:00.698Z,69.24
2019-03-16T02:30:00.712Z,69.03
2019-03-16T02:31:00.689Z,68.72
2019-03-16T02:32:00.686Z,68.85
2019-03-16T02:33:12.384Z,68.41
2019-03-16T02:34:01.680Z,68.82
2019-03-16T02:35:00.694Z,68.51
2019-03-16T02:36:00.645Z,68.41
2019-03-16T02:37:00.640Z,68.62
2019-03-16T02:38:00.620Z,68.51
2019-03-16T02:39:00.629Z,68.62
2019-03-16T02:40:00.686Z,68.93
2019-03-16T02:41:00.587Z,68.85
2019-03-16T02:42:00.554Z,68.30
2019-03-16T02:43:00.541Z,68.44
2019-03-16T02:44:00.528Z,68.85
2019-03-16T02:45:00.515Z,68.85
2019-03-16T02:46:00.552Z,68.93
2019-03-16T02:47:00.500Z,68.93
2019-03-16T02:48:00.498Z,68.96
2019-03-16T02:49:00.493Z,69.13
2019-03-16T02:50:00.542Z,68.30
2019-03-16T02:51:00.495Z,68.30
2019-03-16T02:52:00.445Z,68.93
2019-03-16T02:53:01.191Z,68.51
2019-03-16T02:54:00.429Z,68.44
2019-03-16T02:55:00.635Z,68.44
2019-03-16T02:56:00.433Z,68.41
2019-03-16T02:57:00.392Z,68.62
2019-03-16T02:58:00.371Z,68.00
2019-03-16T02:59:00.448Z,68.10
2019-03-16T03:00:00.534Z,68.10
2019-03-16T03:01:00.366Z,68.30
2019-03-16T03:02:00.334Z,68.30
2019-03-16T03:03:00.320Z,68.41
2019-03-16T03:04:00.333Z,68.62
2019-03-16T03:05:00.707Z,68.93
2019-03-16T03:06:00.305Z,68.82
2019-03-16T03:07:00.280Z,68.75
2019-03-16T03:08:00.255Z,68.65
2019-03-16T03:09:00.254Z,69.17
2019-03-16T03:10:00.421Z,69.34
2019-03-16T03:11:00.245Z,69.27
2019-03-16T03:12:00.215Z,69.44
2019-03-16T03:13:00.206Z,69.27
2019-03-16T03:14:00.214Z,69.34
2019-03-16T03:15:00.664Z,69.17
2019-03-16T03:16:00.202Z,69.37
2019-03-16T03:17:00.169Z,70.20
2019-03-16T03:18:00.182Z,69.68
2019-03-16T03:19:00.143Z,69.58
2019-03-16T03:20:00.471Z,69.58
2019-03-16T03:21:00.114Z,69.58
2019-03-16T03:22:00.121Z,69.78
2019-03-16T03:23:00.112Z,69.68
2019-03-16T03:24:00.096Z,69.68
2019-03-16T03:25:00.348Z,69.48
2019-03-16T03:26:00.061Z,69.37
2019-03-16T03:27:00.043Z,69.99
2019-03-16T03:28:00.046Z,69.99
2019-03-16T03:29:00.032Z,70.72
2019-03-16T03:30:00.469Z,70.20
2019-03-16T03:31:00.001Z,70.82
2019-03-16T03:32:00.162Z,70.64
2019-03-16T03:32:59.985Z,70.51
2019-03-16T03:34:02.552Z,70.61
2019-03-16T03:34:59.957Z,70.61
2019-03-16T03:35:59.937Z,69.89
2019-03-16T03:36:59.964Z,70.20
2019-03-16T03:37:59.921Z,70.33
2019-03-16T03:38:59.924Z,70.72
2019-03-16T03:39:59.899Z,70.40
2019-03-16T03:41:01.907Z,70.54
2019-03-16T03:41:59.909Z,69.99
2019-03-16T03:42:59.865Z,70.51
2019-03-16T03:43:59.886Z,70.51
2019-03-16T03:44:59.880Z,70.75
2019-03-16T03:45:59.866Z,70.20
2019-03-16T03:46:59.845Z,70.40
2019-03-16T03:47:59.800Z,70.82
2019-03-16T03:48:59.799Z,70.51
2019-03-16T03:49:59.794Z,71.44
2019-03-16T03:50:59.773Z,70.82
2019-03-16T03:51:59.773Z,70.43
2019-03-16T03:52:59.757Z,70.54
2019-03-16T03:53:59.753Z,70.54
2019-03-16T03:54:59.733Z,70.54
2019-03-16T03:55:59.726Z,70.75
2019-03-16T03:56:59.753Z,70.95
2019-03-16T03:57:59.702Z,70.85
2019-03-16T03:58:59.679Z,70.75
2019-03-16T03:59:59.678Z,70.72
2019-03-16T04:00:59.659Z,70.92
2019-03-16T04:01:59.665Z,70.72
2019-03-16T04:02:59.645Z,70.95
2019-03-16T04:04:14.247Z,70.64
2019-03-16T04:05:00.622Z,70.82
2019-03-16T04:05:59.602Z,70.82
2019-03-16T04:06:59.630Z,71.06
2019-03-16T04:07:59.607Z,70.92
2019-03-16T04:08:59.577Z,71.16
2019-03-16T04:09:59.586Z,71.57
2019-03-16T04:10:59.552Z,71.47
2019-03-16T04:11:59.554Z,71.54
2019-03-16T04:12:59.547Z,71.16
2019-03-16T04:13:59.515Z,71.02
2019-03-16T04:14:59.504Z,71.44
2019-03-16T04:15:59.489Z,71.64
2019-03-16T04:16:59.494Z,71.33
2019-03-16T04:17:59.485Z,71.23
2019-03-16T04:18:59.471Z,71.33
2019-03-16T04:19:59.451Z,71.23
2019-03-16T04:20:59.449Z,71.85
2019-03-16T04:21:59.437Z,71.44
2019-03-16T04:22:59.422Z,71.44
2019-03-16T04:23:59.405Z,71.02
2019-03-16T04:24:59.388Z,71.85
2019-03-16T04:25:59.396Z,71.95
2019-03-16T04:27:14.648Z,71.64
2019-03-16T04:28:00.366Z,72.16
2019-03-16T04:28:59.350Z,71.78
2019-03-16T04:29:59.344Z,72.06
2019-03-16T04:30:59.325Z,71.95
2019-03-16T04:31:59.343Z,71.78
2019-03-16T04:32:59.305Z,71.85
2019-03-16T04:33:59.290Z,71.98
2019-03-16T04:34:59.282Z,71.85
2019-03-16T04:35:59.287Z,72.16
2019-03-16T04:36:59.292Z,72.67
2019-03-16T04:37:59.249Z,72.50
2019-03-16T04:38:59.258Z,72.16
2019-03-16T04:39:59.222Z,72.40
2019-03-16T04:40:59.215Z,72.71
2019-03-16T04:41:59.216Z,72.19
2019-03-16T04:42:59.220Z,72.40
2019-03-16T04:43:59.176Z,72.19
2019-03-16T04:44:59.173Z,72.36
2019-03-16T04:45:59.155Z,72.26
2019-03-16T04:46:59.148Z,72.78
2019-03-16T04:47:59.155Z,72.36
2019-03-16T04:48:59.131Z,72.36
2019-03-16T04:49:59.118Z,72.36
2019-03-16T04:50:59.096Z,72.16
2019-03-16T04:51:59.091Z,72.16
2019-03-16T04:52:59.105Z,72.50
2019-03-16T04:53:59.073Z,72.47
2019-03-16T04:54:59.062Z,72.19
2019-03-16T04:55:59.056Z,72.71
2019-03-16T04:56:59.138Z,72.81
2019-03-16T04:57:59.049Z,72.61
2019-03-16T04:58:59.031Z,72.71
2019-03-16T04:59:59.004Z,72.40
2019-03-16T05:00:58.987Z,72.71
2019-03-16T05:01:58.977Z,72.81
2019-03-16T05:02:58.995Z,72.91
2019-03-16T05:03:58.963Z,73.02
2019-03-16T05:04:58.952Z,73.12
2019-03-16T05:05:58.947Z,73.22
2019-03-16T05:06:58.920Z,73.22
2019-03-16T05:07:58.928Z,73.33
2019-03-16T05:08:58.902Z,73.43
2019-03-16T05:09:58.987Z,73.33
2019-03-16T05:10:58.898Z,73.12
2019-03-16T05:11:58.888Z,73.74
2019-03-16T05:12:58.926Z,73.43
2019-03-16T05:13:58.846Z,73.33
2019-03-16T05:14:58.836Z,73.22
2019-03-16T05:15:58.826Z,73.33
2019-03-16T05:16:58.818Z,73.33
2019-03-16T05:17:58.815Z,73.33
2019-03-16T05:18:58.798Z,73.54
2019-03-16T05:19:58.776Z,73.22
2019-03-16T05:20:58.764Z,73.22
2019-03-16T05:21:58.756Z,73.22
2019-03-16T05:22:58.760Z,73.74
2019-03-16T05:23:58.732Z,73.54
2019-03-16T05:24:58.722Z,73.33
2019-03-16T05:25:58.702Z,73.22
2019-03-16T05:26:58.696Z,73.74
2019-03-16T05:27:58.716Z,73.33
2019-03-16T05:28:58.684Z,73.85
2019-03-16T05:29:58.666Z,73.74
2019-03-16T05:30:58.656Z,73.74
2019-03-16T05:31:58.653Z,73.22
2019-03-16T05:32:58.650Z,73.54
2019-03-16T05:33:58.622Z,73.43
2019-03-16T05:34:58.611Z,73.22
2019-03-16T05:35:58.594Z,73.22
2019-03-16T05:36:58.580Z,73.22
2019-03-16T05:37:58.604Z,73.33
2019-03-16T05:38:58.564Z,73.22
2019-03-16T05:39:58.549Z,73.43
2019-03-16T05:40:58.540Z,73.33
2019-03-16T05:41:58.535Z,73.12
2019-03-16T05:42:58.536Z,73.29
2019-03-16T05:43:58.521Z,73.22
2019-03-16T05:44:58.496Z,73.43
2019-03-16T05:45:58.498Z,73.33
2019-03-16T05:46:58.469Z,73.22
2019-03-16T05:47:58.480Z,73.22
2019-03-16T05:48:58.451Z,73.50
2019-03-16T05:49:58.445Z,73.50
2019-03-16T05:50:58.439Z,73.29
2019-03-16T05:51:58.440Z,73.19
2019-03-16T05:52:58.441Z,73.74
2019-03-16T05:53:58.406Z,73.71
2019-03-16T05:54:58.390Z,73.74
2019-03-16T05:55:58.406Z,75.36
2019-03-16T05:56:58.362Z,74.63
2019-03-16T05:57:58.370Z,73.91
2019-03-16T05:58:58.336Z,75.32
2019-03-16T05:59:58.322Z,74.15
2019-03-16T06:00:58.327Z,73.12
2019-03-16T06:01:58.322Z,72.92
2019-03-16T06:02:58.306Z,73.12
2019-03-16T06:03:58.280Z,71.78
2019-03-16T06:05:09.794Z,73.43
2019-03-16T06:05:59.283Z,72.61
2019-03-16T06:06:58.265Z,73.33
2019-03-16T06:07:58.267Z,72.61
2019-03-16T06:08:58.267Z,72.33
2019-03-16T06:09:58.216Z,73.74
2019-03-16T06:10:58.226Z,71.89
2019-03-16T06:11:58.198Z,72.09
2019-03-16T06:12:58.180Z,72.61
2019-03-16T06:13:58.209Z,71.89
2019-03-16T06:14:58.169Z,71.68
2019-03-16T06:15:58.146Z,71.99
2019-03-16T06:16:58.136Z,74.26
2019-03-16T06:17:58.136Z,72.50
2019-03-16T06:18:58.130Z,72.37
2019-03-16T06:19:58.138Z,71.99
2019-03-16T06:20:58.088Z,71.26
2019-03-16T06:21:58.075Z,73.09
2019-03-16T06:22:58.082Z,72.67
2019-03-16T06:23:58.089Z,70.82
2019-03-16T06:24:58.059Z,72.71
2019-03-16T06:25:58.044Z,72.16
2019-03-16T06:26:58.025Z,71.95
2019-03-16T06:27:58.024Z,71.44
2019-03-16T06:28:58.025Z,70.82
2019-03-16T06:29:58.001Z,71.26
2019-03-16T06:30:57.990Z,72.30
2019-03-16T06:31:57.964Z,70.92
2019-03-16T06:32:57.956Z,71.23
2019-03-16T06:33:58.121Z,70.92
2019-03-16T06:34:57.942Z,71.55
2019-03-16T06:35:57.928Z,70.92
2019-03-16T06:36:57.955Z,70.92
2019-03-16T06:37:57.909Z,71.64
2019-03-16T06:38:57.917Z,72.06
2019-03-16T06:39:57.889Z,71.44
2019-03-16T06:40:57.878Z,70.92
2019-03-16T06:41:57.871Z,71.34
2019-03-16T06:42:57.846Z,71.82
2019-03-16T06:43:57.869Z,72.03
2019-03-16T06:44:57.830Z,70.68
2019-03-16T06:46:58.983Z,71.00
2019-03-16T06:47:57.798Z,71.10
2019-03-16T06:48:57.799Z,71.20
2019-03-16T06:49:57.764Z,70.17
2019-03-16T06:50:57.763Z,69.86
2019-03-16T06:51:57.784Z,70.58
2019-03-16T06:52:57.736Z,70.17
2019-03-16T06:53:57.756Z,70.37
2019-03-16T06:54:57.761Z,69.86
2019-03-16T06:55:57.690Z,70.55
2019-03-16T06:56:57.695Z,70.65
2019-03-16T06:57:57.732Z,69.45
2019-03-16T06:58:58.630Z,69.93
2019-03-16T06:59:57.690Z,69.31
2019-03-16T07:00:57.647Z,70.65
2019-03-16T07:01:57.630Z,70.62
2019-03-16T07:02:57.648Z,70.34
2019-03-16T07:03:57.626Z,70.42
2019-03-16T07:04:57.605Z,69.90
2019-03-16T07:05:57.860Z,69.18
2019-03-16T07:06:57.576Z,73.57
2019-03-16T07:07:57.556Z,69.25
2019-03-16T07:08:57.564Z,73.61
2019-03-16T07:10:59.236Z,68.02
2019-03-16T07:11:57.724Z,69.36
2019-03-16T07:12:57.678Z,69.46
2019-03-16T07:13:57.706Z,69.32
2019-03-16T07:14:57.667Z,68.88
2019-03-16T07:15:57.648Z,66.66
2019-03-16T07:17:02.425Z,66.66
2019-03-16T07:17:58.512Z,65.97
2019-03-16T07:18:58.977Z,65.86
2019-03-16T07:19:57.467Z,67.85
2019-03-16T07:20:57.418Z,71.00
2019-03-16T07:21:57.418Z,66.38
2019-03-16T07:22:57.400Z,66.82
2019-03-16T07:23:57.402Z,67.75
2019-03-16T07:24:57.395Z,66.82
2019-03-16T07:25:57.378Z,68.16
2019-03-16T07:26:57.372Z,69.18
2019-03-16T07:27:57.354Z,66.51
2019-03-16T07:28:57.376Z,68.37
2019-03-16T07:29:57.344Z,68.26
2019-03-16T07:30:57.307Z,66.61
2019-03-16T07:31:57.310Z,69.26
2019-03-16T07:32:57.298Z,66.38
2019-03-16T07:33:57.306Z,66.00
2019-03-16T07:34:57.256Z,66.82
2019-03-16T07:35:57.262Z,66.93
2019-03-16T07:36:57.257Z,66.20
2019-03-16T07:37:57.232Z,66.61
2019-03-16T07:38:57.257Z,66.61
2019-03-16T07:39:57.204Z,66.61
2019-03-16T07:40:57.193Z,66.85
2019-03-16T07:42:00.384Z,66.85
2019-03-16T07:42:57.168Z,66.96
2019-03-16T07:43:57.160Z,67.81
2019-03-16T07:45:07.563Z,67.40
2019-03-16T07:45:58.125Z,67.78
2019-03-16T07:46:57.134Z,67.40
2019-03-16T07:47:57.128Z,67.88
2019-03-16T07:48:57.094Z,67.68
2019-03-16T07:49:57.133Z,66.67
2019-03-16T07:50:57.074Z,66.78
2019-03-16T07:51:57.100Z,66.47
2019-03-16T07:52:57.052Z,67.40
2019-03-16T07:53:57.052Z,67.71
2019-03-16T07:54:57.085Z,67.91
2019-03-16T07:55:57.027Z,67.40
2019-03-16T07:56:57.067Z,67.91
2019-03-16T07:57:57.010Z,67.30
2019-03-16T07:58:56.984Z,66.58
2019-03-16T07:59:57.014Z,67.60
2019-03-16T08:00:56.966Z,67.81
2019-03-16T08:01:56.973Z,66.88
2019-03-16T08:02:56.947Z,67.91
2019-03-16T08:03:56.932Z,67.60
2019-03-16T08:04:56.935Z,68.12
2019-03-16T08:05:56.917Z,67.81
2019-03-16T08:06:56.893Z,67.91
2019-03-16T08:07:56.879Z,68.02
2019-03-16T08:08:56.907Z,68.02
2019-03-16T08:09:56.879Z,68.32
2019-03-16T08:10:56.853Z,67.81
2019-03-16T08:11:56.893Z,67.30
2019-03-16T08:12:56.839Z,67.19
2019-03-16T08:13:56.818Z,67.47
2019-03-16T08:14:56.872Z,67.60
2019-03-16T08:15:56.800Z,67.78
2019-03-16T08:16:56.825Z,66.75
2019-03-16T08:17:56.794Z,66.85
2019-03-16T08:18:56.768Z,66.75
2019-03-16T08:19:56.852Z,66.64
2019-03-16T08:20:56.751Z,66.61
2019-03-16T08:21:56.727Z,66.00
2019-03-16T08:22:56.732Z,66.34
2019-03-16T08:23:56.861Z,66.96
2019-03-16T08:24:56.741Z,66.75
2019-03-16T08:25:56.696Z,66.75
2019-03-16T08:26:56.678Z,66.75
2019-03-16T08:27:56.911Z,66.82
2019-03-16T08:28:59.147Z,66.64
2019-03-16T08:29:56.680Z,66.75
2019-03-16T08:30:56.990Z,66.85
2019-03-16T08:31:56.624Z,66.31
2019-03-16T08:32:56.644Z,66.44
2019-03-16T08:33:56.636Z,66.54
2019-03-16T08:34:56.610Z,66.75
2019-03-16T08:35:56.583Z,66.96
2019-03-16T08:36:56.556Z,66.96
2019-03-16T08:37:56.546Z,66.96
2019-03-16T08:38:56.557Z,66.85
2019-03-16T08:39:56.563Z,66.85
2019-03-16T08:40:56.548Z,66.75
2019-03-16T08:41:56.504Z,66.44
2019-03-16T08:42:56.490Z,66.54
2019-03-16T08:43:56.486Z,66.20
2019-03-16T08:44:56.488Z,65.80
2019-03-16T08:45:56.464Z,65.38
2019-03-16T08:46:56.460Z,65.56
2019-03-16T08:47:56.438Z,65.25
2019-03-16T08:48:56.424Z,66.58
2019-03-16T08:49:56.421Z,65.86
2019-03-16T08:50:56.406Z,65.14
2019-03-16T08:51:56.392Z,65.77
2019-03-16T08:52:56.392Z,65.25
2019-03-16T08:53:56.389Z,64.84
2019-03-16T08:54:56.356Z,64.94
2019-03-16T08:55:56.352Z,65.32
2019-03-16T08:56:56.331Z,64.50
2019-03-16T08:58:05.605Z,64.16
2019-03-16T08:58:57.358Z,63.75
2019-03-16T08:59:56.316Z,63.57
2019-03-16T09:00:56.283Z,63.89
2019-03-16T09:01:56.278Z,63.24
2019-03-16T09:02:56.268Z,62.73
2019-03-16T09:03:56.248Z,63.03
2019-03-16T09:04:56.251Z,63.65
2019-03-16T09:05:56.219Z,63.13
2019-03-16T09:06:56.216Z,63.03
2019-03-16T09:07:56.196Z,62.85
2019-03-16T09:08:56.204Z,63.34
2019-03-16T09:09:56.174Z,62.11
2019-03-16T09:10:56.165Z,61.90
2019-03-16T09:11:58.241Z,62.34
2019-03-16T09:12:56.140Z,61.90
2019-03-16T09:13:56.158Z,62.45
2019-03-16T09:14:56.142Z,61.62
2019-03-16T09:15:56.108Z,62.55
2019-03-16T09:16:56.099Z,61.80
2019-03-16T09:17:56.096Z,62.52
2019-03-16T09:18:56.094Z,61.08
2019-03-16T09:19:56.070Z,61.80
2019-03-16T09:20:56.065Z,60.88
2019-03-16T09:21:56.037Z,61.90
2019-03-16T09:22:56.029Z,61.39
2019-03-16T09:23:56.042Z,60.88
2019-03-16T09:24:56.008Z,61.29
2019-03-16T09:25:56.010Z,61.70
2019-03-16T09:26:55.992Z,61.87
2019-03-16T09:27:55.972Z,60.03
2019-03-16T09:29:00.191Z,60.98
2019-03-16T09:29:55.964Z,60.54
2019-03-16T09:30:56.640Z,61.05
2019-03-16T09:31:55.942Z,60.75
2019-03-16T09:32:55.912Z,60.13
2019-03-16T09:33:55.901Z,60.61
2019-03-16T09:34:55.896Z,60.41
2019-03-16T09:35:55.898Z,60.31
2019-03-16T09:36:55.870Z,60.21
2019-03-16T09:37:55.858Z,58.67
2019-03-16T09:38:55.847Z,58.07
2019-03-16T09:39:55.840Z,59.64
2019-03-16T09:40:55.848Z,60.03
2019-03-16T09:41:55.812Z,60.54
2019-03-16T09:42:55.805Z,59.92
2019-03-16T09:43:55.796Z,59.38
2019-03-16T09:44:55.800Z,58.26
2019-03-16T09:45:55.791Z,58.54
2019-03-16T09:46:55.764Z,58.84
2019-03-16T09:47:55.754Z,58.23
2019-03-16T09:48:55.741Z,58.40
2019-03-16T09:49:55.730Z,58.64
2019-03-16T09:50:55.734Z,59.36
2019-03-16T09:51:55.706Z,58.26
2019-03-16T09:52:55.693Z,58.36
2019-03-16T09:53:55.679Z,59.08
2019-03-16T09:54:55.665Z,58.97
2019-03-16T09:55:55.859Z,59.59
2019-03-16T09:57:01.245Z,58.56
2019-03-16T09:57:56.634Z,58.87
2019-03-16T09:58:55.621Z,58.36
2019-03-16T09:59:55.616Z,58.46
2019-03-16T10:00:55.625Z,58.67
2019-03-16T10:01:55.593Z,57.79
2019-03-16T10:02:55.576Z,58.03
2019-03-16T10:03:55.562Z,57.92
2019-03-16T10:04:55.552Z,56.38
2019-03-16T10:05:55.570Z,57.00
2019-03-16T10:06:55.536Z,57.03
2019-03-16T10:07:55.522Z,58.26
2019-03-16T10:08:55.515Z,57.84
2019-03-16T10:09:55.522Z,58.23
2019-03-16T10:10:55.500Z,58.26
2019-03-16T10:11:55.481Z,58.26
2019-03-16T10:12:55.468Z,58.46
2019-03-16T10:13:55.448Z,58.80
2019-03-16T10:14:55.475Z,58.67
2019-03-16T10:15:55.461Z,56.51
2019-03-16T10:16:55.425Z,56.79
2019-03-16T10:17:55.414Z,56.71
2019-03-16T10:18:55.417Z,57.95
2019-03-16T10:19:55.384Z,58.46
2019-03-16T10:20:55.398Z,58.12
2019-03-16T10:21:55.364Z,57.79
2019-03-16T10:22:55.353Z,56.92
2019-03-16T10:23:55.353Z,55.56
2019-03-16T10:24:55.330Z,55.18
2019-03-16T10:25:55.326Z,55.82
2019-03-16T10:26:55.375Z,56.13
2019-03-16T10:27:55.302Z,56.13
2019-03-16T10:28:55.279Z,56.64
2019-03-16T10:29:55.270Z,56.23
2019-03-16T10:30:55.280Z,56.13
2019-03-16T10:31:55.249Z,54.18
2019-03-16T10:32:55.237Z,54.05
2019-03-16T10:33:55.220Z,54.38
2019-03-16T10:34:55.259Z,54.69
2019-03-16T10:35:55.223Z,54.28
2019-03-16T10:36:55.190Z,55.10
2019-03-16T10:37:55.178Z,54.92
2019-03-16T10:38:55.170Z,55.46
2019-03-16T10:39:55.154Z,56.28
2019-03-16T10:40:55.171Z,56.90
2019-03-16T10:41:55.136Z,57.61
2019-03-16T10:42:55.132Z,57.51
2019-03-16T10:43:55.107Z,56.82
2019-03-16T10:44:55.117Z,56.79
2019-03-16T10:45:55.113Z,56.49
2019-03-16T10:46:55.082Z,56.35
2019-03-16T10:47:55.066Z,56.64
2019-03-16T10:48:55.066Z,55.92
2019-03-16T10:49:55.052Z,55.92
2019-03-16T10:50:55.058Z,56.02
2019-03-16T10:51:55.024Z,56.35
2019-03-16T10:52:55.012Z,55.92
2019-03-16T10:53:55.003Z,55.72
2019-03-16T10:54:54.986Z,55.30
2019-03-16T10:55:55.108Z,54.59
2019-03-16T10:56:54.962Z,53.97
2019-03-16T10:57:54.956Z,53.77
2019-03-16T10:58:56.773Z,54.08
2019-03-16T10:59:54.936Z,54.10
2019-03-16T11:00:54.935Z,55.43
2019-03-16T11:01:54.935Z,55.33
2019-03-16T11:02:54.938Z,55.15
2019-03-16T11:03:54.895Z,55.36
2019-03-16T11:04:54.878Z,56.41
2019-03-16T11:05:54.885Z,56.62
2019-03-16T11:06:54.870Z,56.00
2019-03-16T11:07:54.832Z,55.79
2019-03-16T11:08:54.831Z,55.38
2019-03-16T11:09:54.812Z,56.00
2019-03-16T11:10:54.829Z,56.41
2019-03-16T11:11:54.832Z,56.20
2019-03-16T11:12:54.816Z,55.38
2019-03-16T11:13:54.768Z,56.41
2019-03-16T11:14:54.765Z,56.20
2019-03-16T11:15:54.752Z,57.03
2019-03-16T11:16:54.763Z,56.82
2019-03-16T11:17:54.752Z,56.62
2019-03-16T11:18:54.722Z,56.82
2019-03-16T11:19:54.706Z,56.41
2019-03-16T11:20:54.693Z,56.41
2019-03-16T11:21:54.873Z,56.41
2019-03-16T11:22:54.683Z,56.38
2019-03-16T11:23:54.680Z,56.79
2019-03-16T11:24:54.646Z,57.54
2019-03-16T11:25:54.638Z,57.00
2019-03-16T11:26:54.642Z,56.82
2019-03-16T11:27:54.618Z,56.92
2019-03-16T11:28:54.609Z,57.03
2019-03-16T11:29:54.609Z,56.85
2019-03-16T11:30:54.606Z,56.95
2019-03-16T11:31:54.589Z,58.07
2019-03-16T11:32:54.553Z,56.74
2019-03-16T11:33:54.564Z,58.28
2019-03-16T11:34:54.554Z,57.46
2019-03-16T11:35:54.549Z,56.54
2019-03-16T11:36:54.535Z,58.51
2019-03-16T11:37:54.499Z,56.74
2019-03-16T11:38:54.487Z,56.13
2019-03-16T11:39:54.811Z,58.21
2019-03-16T11:40:54.542Z,57.18
2019-03-16T11:41:54.497Z,57.70
2019-03-16T11:42:54.456Z,58.00
2019-03-16T11:43:54.438Z,59.57
2019-03-16T11:44:54.431Z,60.60
2019-03-16T11:45:54.428Z,61.42
2019-03-16T11:46:54.526Z,62.55
2019-03-16T11:47:54.383Z,61.44
2019-03-16T11:48:54.376Z,60.83
2019-03-16T11:49:54.369Z,60.73
2019-03-16T11:50:54.362Z,61.27
2019-03-16T11:51:54.374Z,61.88
2019-03-16T11:52:54.349Z,62.30
2019-03-16T11:53:54.323Z,61.99
2019-03-16T11:54:54.305Z,62.60
2019-03-16T11:55:54.633Z,62.12
2019-03-16T11:56:54.311Z,61.88
2019-03-16T11:57:54.273Z,61.30
2019-03-16T11:58:54.262Z,61.27
2019-03-16T11:59:54.251Z,61.47
2019-03-16T12:00:54.242Z,60.55
2019-03-16T12:02:04.893Z,60.65
2019-03-16T12:02:55.251Z,61.17
2019-03-16T12:03:54.216Z,61.27
2019-03-16T12:04:54.189Z,62.12
2019-03-16T12:05:54.175Z,62.74
2019-03-16T12:06:54.288Z,63.76
2019-03-16T12:07:54.163Z,64.69
2019-03-16T12:08:54.148Z,66.44
2019-03-16T12:09:54.145Z,68.29
2019-03-16T12:10:54.124Z,69.22
2019-03-16T12:11:54.147Z,69.76
2019-03-16T12:12:54.100Z,70.28
2019-03-16T12:13:54.088Z,71.51
2019-03-16T12:14:54.079Z,72.64
2019-03-16T12:15:54.070Z,73.50
2019-03-16T12:16:54.070Z,74.84
2019-03-16T12:17:54.043Z,75.67
2019-03-16T12:18:54.029Z,76.70
2019-03-16T12:19:54.023Z,76.93
2019-03-16T12:20:54.010Z,78.00
2019-03-16T12:21:54.554Z,78.72
2019-03-16T12:22:54.026Z,79.69
2019-03-16T12:23:53.974Z,79.75
2019-03-16T12:24:53.964Z,80.00
2019-03-16T12:25:53.961Z,80.37
2019-03-16T12:26:53.964Z,80.79
2019-03-16T12:27:53.950Z,81.65
2019-03-16T12:28:53.939Z,82.78
2019-03-16T12:29:53.909Z,83.98
2019-03-16T12:30:53.895Z,82.98
2019-03-16T12:31:53.904Z,83.61
2019-03-16T12:32:53.871Z,84.43
2019-03-16T12:33:56.429Z,84.39
2019-03-16T12:34:53.856Z,83.56
2019-03-16T12:35:53.847Z,83.71
2019-03-16T12:36:53.855Z,84.33
2019-03-16T12:37:53.839Z,84.33
2019-03-16T12:38:53.829Z,85.15
2019-03-16T12:39:53.801Z,84.27
2019-03-16T12:40:53.790Z,85.50
2019-03-16T12:41:53.788Z,86.74
2019-03-16T12:42:53.854Z,88.29
2019-03-16T12:43:53.751Z,87.73
2019-03-16T12:44:53.737Z,86.12
2019-03-16T12:45:53.741Z,84.99
2019-03-16T12:46:53.738Z,84.27
2019-03-16T12:47:53.707Z,84.09
2019-03-16T12:48:53.697Z,83.17
2019-03-16T12:49:53.685Z,83.06
2019-03-16T12:50:54.519Z,84.41
2019-03-16T12:51:53.677Z,85.02
2019-03-16T12:52:53.650Z,86.78
2019-03-16T12:53:53.639Z,87.29